createdAt,value
2018-09-05T00:02:44.301Z,19.30
2018-09-05T00:08:48.226Z,19.30
2018-09-05T00:14:51.546Z,19.20
2018-09-05T00:20:55.641Z,19.10
2018-09-05T00:26:59.319Z,18.90
2018-09-05T00:33:02.667Z,18.80
2018-09-05T00:39:08.494Z,18.70
2018-09-05T00:45:11.946Z,18.70
2018-09-05T00:51:16.167Z,18.70
2018-09-05T00:57:20.497Z,18.70
2018-09-05T01:03:23.879Z,18.80
2018-09-05T01:09:28.147Z,18.80
2018-09-05T01:15:32.098Z,18.70
2018-09-05T01:21:35.949Z,18.70
2018-09-05T01:27:39.343Z,18.60
2018-09-05T01:33:42.966Z,18.60
2018-09-05T01:39:46.633Z,18.50
2018-09-05T01:45:50.057Z,18.40
2018-09-05T01:51:55.401Z,18.30
2018-09-05T01:57:59.355Z,18.30
2018-09-05T02:04:02.769Z,18.20
2018-09-05T02:10:06.457Z,18.20
2018-09-05T02:16:10.098Z,18.20
2018-09-05T02:22:13.851Z,18.20
2018-09-05T02:28:17.381Z,18.20
2018-09-05T02:34:20.728Z,18.20
2018-09-05T02:40:24.192Z,18.10
2018-09-05T02:46:27.621Z,18.00
2018-09-05T02:52:31.749Z,17.90
2018-09-05T02:58:35.498Z,17.90
2018-09-05T03:04:39.046Z,17.90
2018-09-05T03:10:49.329Z,17.90
2018-09-05T03:16:53.041Z,17.90
2018-09-05T03:22:56.570Z,17.90
2018-09-05T03:29:00.012Z,18.00
2018-09-05T03:35:03.787Z,18.00
2018-09-05T03:41:07.261Z,17.90
2018-09-05T03:47:11.079Z,17.90
2018-09-05T03:53:14.837Z,17.80
2018-09-05T03:59:18.916Z,17.80
2018-09-05T04:05:22.269Z,17.80
2018-09-05T04:11:27.841Z,17.80
2018-09-05T04:17:31.598Z,17.80
2018-09-05T04:23:52.969Z,17.80
2018-09-05T04:29:56.469Z,17.80
2018-09-05T04:35:59.919Z,17.70
2018-09-05T04:42:03.437Z,17.70
2018-09-05T04:48:07.398Z,17.70
2018-09-05T04:54:11.014Z,17.70
2018-09-05T05:00:15.629Z,17.70
2018-09-05T05:06:19.184Z,17.70
2018-09-05T05:12:22.526Z,17.80
2018-09-05T05:18:26.188Z,17.90
2018-09-05T05:24:29.811Z,17.90
2018-09-05T05:30:33.310Z,18.00
2018-09-05T05:36:36.693Z,18.10
2018-09-05T05:42:40.411Z,18.20
2018-09-05T05:48:44.837Z,18.30
2018-09-05T05:54:48.558Z,18.40
2018-09-05T06:00:58.924Z,18.50
2018-09-05T06:07:02.560Z,18.60
2018-09-05T06:13:06.214Z,18.70
2018-09-05T06:19:10.415Z,18.90
2018-09-05T06:25:14.035Z,19.00
2018-09-05T06:31:18.157Z,19.10
2018-09-05T06:37:21.514Z,19.20
2018-09-05T06:43:25.302Z,19.40
2018-09-05T06:49:29.117Z,19.60
2018-09-05T06:55:32.837Z,19.70
2018-09-05T07:01:36.943Z,19.80
2018-09-05T07:07:40.450Z,20.00
2018-09-05T07:13:44.614Z,20.10
2018-09-05T07:19:47.891Z,20.40
2018-09-05T07:25:51.837Z,20.60
2018-09-05T07:31:55.254Z,20.70
2018-09-05T07:37:58.514Z,20.90
2018-09-05T07:44:02.499Z,21.00
2018-09-05T07:50:07.233Z,21.30
2018-09-05T07:56:10.729Z,21.60
2018-09-05T08:02:14.185Z,21.90
2018-09-05T08:08:17.558Z,22.20
2018-09-05T08:14:21.260Z,22.50
2018-09-05T08:20:24.919Z,22.70
2018-09-05T08:26:28.638Z,22.90
2018-09-05T08:32:32.117Z,23.20
2018-09-05T08:38:35.701Z,23.50
2018-09-05T08:44:39.505Z,23.80
2018-09-05T08:50:42.925Z,24.00
2018-09-05T08:56:46.614Z,24.30
2018-09-05T09:02:51.108Z,24.50
2018-09-05T09:08:54.626Z,24.50
2018-09-05T09:14:58.329Z,24.60
2018-09-05T09:21:01.744Z,24.80
2018-09-05T09:27:05.604Z,24.90
2018-09-05T09:33:09.277Z,25.00
2018-09-05T09:39:12.995Z,25.20
2018-09-05T09:45:16.954Z,25.30
2018-09-05T09:51:22.079Z,25.40
2018-09-05T09:57:25.763Z,25.60
2018-09-05T10:03:34.880Z,25.80
2018-09-05T10:09:44.026Z,26.00
2018-09-05T10:15:53.385Z,26.00
2018-09-05T10:21:56.801Z,26.10
2018-09-05T10:28:00.418Z,26.10
2018-09-05T10:34:04.231Z,26.20
2018-09-05T10:40:07.769Z,26.30
2018-09-05T10:46:11.922Z,26.30
2018-09-05T10:52:16.145Z,26.50
2018-09-05T10:58:19.553Z,26.80
2018-09-05T11:04:22.970Z,27.10
2018-09-05T11:10:26.890Z,27.20
2018-09-05T11:16:30.229Z,27.30
2018-09-05T11:22:33.772Z,27.40
2018-09-05T11:28:37.133Z,27.60
2018-09-05T11:34:40.592Z,27.70
2018-09-05T11:40:44.197Z,27.90
2018-09-05T11:46:47.566Z,28.10
2018-09-05T11:52:51.853Z,28.10
2018-09-05T11:58:55.614Z,28.00
2018-09-05T12:04:59.059Z,28.00
2018-09-05T12:11:02.445Z,27.90
2018-09-05T12:17:05.946Z,28.10
2018-09-05T12:23:09.568Z,28.40
2018-09-05T12:29:13.467Z,28.70
2018-09-05T12:35:16.800Z,28.80
2018-09-05T12:41:20.119Z,28.90
2018-09-05T12:47:23.574Z,29.10
2018-09-05T12:53:26.998Z,29.10
2018-09-05T12:59:30.296Z,29.00
2018-09-05T13:05:33.629Z,29.10
2018-09-05T13:11:36.919Z,29.10
2018-09-05T13:17:40.303Z,29.00
2018-09-05T13:23:43.673Z,29.00
2018-09-05T13:29:46.972Z,28.90
2018-09-05T13:35:50.515Z,29.20
2018-09-05T13:41:54.408Z,29.60
2018-09-05T13:47:57.889Z,29.90
2018-09-05T13:54:01.346Z,29.70
2018-09-05T14:00:04.934Z,29.60
2018-09-05T14:06:08.349Z,29.70
2018-09-05T14:12:11.920Z,29.70
2018-09-05T14:18:16.028Z,29.60
2018-09-05T14:24:19.436Z,29.50
2018-09-05T14:30:23.550Z,29.60
2018-09-05T14:36:27.756Z,29.80
2018-09-05T14:42:31.264Z,29.80
2018-09-05T14:48:35.088Z,29.80
2018-09-05T14:54:38.951Z,29.80
2018-09-05T15:00:42.509Z,29.40
2018-09-05T15:06:46.199Z,29.40
2018-09-05T15:12:50.037Z,29.80
2018-09-05T15:18:54.191Z,29.50
2018-09-05T15:25:01.175Z,29.50
2018-09-05T15:31:05.534Z,30.20
2018-09-05T15:37:09.750Z,30.40
2018-09-05T15:43:13.958Z,30.50
2018-09-05T15:49:19.116Z,30.10
2018-09-05T15:55:22.899Z,29.50
2018-09-05T16:01:30.212Z,29.00
2018-09-05T16:07:33.998Z,28.90
2018-09-05T16:13:37.686Z,28.70
2018-09-05T16:19:41.531Z,28.50
2018-09-05T16:25:45.322Z,28.40
2018-09-05T16:31:48.891Z,28.30
2018-09-05T16:37:53.050Z,28.10
2018-09-05T16:43:56.892Z,27.90
2018-09-05T16:50:01.003Z,27.70
2018-09-05T16:56:04.797Z,27.50
2018-09-05T17:02:08.253Z,27.40
2018-09-05T17:08:11.682Z,27.20
2018-09-05T17:14:15.942Z,27.00
2018-09-05T17:20:20.500Z,26.90
2018-09-05T17:26:24.299Z,26.80
2018-09-05T17:32:28.229Z,26.70
2018-09-05T17:38:31.866Z,26.50
2018-09-05T17:44:35.592Z,26.40
2018-09-05T17:50:39.755Z,26.20
2018-09-05T17:56:43.343Z,26.10
2018-09-05T18:02:46.952Z,26.00
2018-09-05T18:08:50.487Z,25.80
2018-09-05T18:14:53.938Z,25.80
2018-09-05T18:20:58.559Z,25.60
2018-09-05T18:27:02.164Z,25.50
2018-09-05T18:33:06.105Z,25.40
2018-09-05T18:39:09.983Z,25.20
2018-09-05T18:45:14.235Z,25.10
2018-09-05T18:51:24.722Z,25.00
2018-09-05T18:57:28.629Z,24.80
2018-09-05T19:03:32.430Z,24.70
2018-09-05T19:09:38.767Z,24.50
2018-09-05T19:15:42.196Z,24.40
2018-09-05T19:21:45.794Z,24.20
2018-09-05T19:27:50.140Z,24.00
2018-09-05T19:33:54.093Z,23.80
2018-09-05T19:39:58.202Z,23.70
2018-09-05T19:46:02.202Z,23.60
2018-09-05T19:52:06.050Z,23.50
2018-09-05T19:58:12.031Z,23.50
2018-09-05T20:04:15.598Z,23.40
2018-09-05T20:10:19.929Z,23.20
2018-09-05T20:16:23.581Z,23.10
2018-09-05T20:22:28.139Z,22.80
2018-09-05T20:28:32.647Z,22.70
2018-09-05T20:34:37.420Z,22.50
2018-09-05T20:40:41.234Z,22.50
2018-09-05T20:46:45.098Z,22.40
2018-09-05T20:52:48.764Z,22.40
2018-09-05T20:58:53.119Z,22.40
2018-09-05T21:05:00.710Z,22.30
2018-09-05T21:11:04.834Z,22.30
2018-09-05T21:17:09.039Z,22.20
2018-09-05T21:23:12.718Z,22.00
2018-09-05T21:29:16.523Z,22.00
2018-09-05T21:35:20.313Z,22.10
2018-09-05T21:41:24.026Z,22.10
2018-09-05T21:47:27.539Z,22.10
2018-09-05T21:53:31.268Z,22.10
2018-09-05T21:59:35.330Z,22.10
2018-09-05T22:05:39.387Z,22.20
2018-09-05T22:11:43.145Z,22.20
2018-09-05T22:17:50.141Z,22.20
2018-09-05T22:23:54.215Z,22.20
2018-09-05T22:29:58.998Z,22.20
2018-09-05T22:36:03.396Z,22.20
2018-09-05T22:42:06.880Z,22.10
2018-09-05T22:48:43.843Z,22.10
2018-09-05T22:59:18.911Z,22.10
2018-09-05T23:08:43.677Z,22.00
2018-09-05T23:15:09.090Z,22.00
2018-09-05T23:21:18.516Z,21.90
2018-09-05T23:27:22.416Z,21.90
2018-09-05T23:33:26.248Z,21.80
2018-09-05T23:39:29.672Z,21.80
2018-09-05T23:45:33.140Z,21.80
2018-09-05T23:51:36.619Z,21.70
2018-09-05T23:57:40.346Z,21.60
